Terminal Aerodrome Forecast
Issued by NWS Jackson, MS

Home | Current Version | Previous Version | Text Only | Print | Product List | Glossary On
Versions: 1 2 3 4 5 6 7 8 9 10 11 12
798
FTUS44 KJAN 302320
TAFMEI
TAF
KMEI 302320Z 0100/0124 34003KT P6SM SCT070
     FM011100 00000KT 6SM BR SCT250
     FM011400 33004KT P6SM SCT070 BKN250=

USA.gov is the U.S. government's official web portal to all federal, state and local government web resources and services.